JAL48 EFHK-RJTT
Flight info
| Callsign | JAL48 |
|---|---|
| Flight time | N/A |
| Altitude | 32000 |
| Route | TEVRU Y75 USUPO DCT BARUX DCT 80N021E 82N020E/M086F320 8930N06000W/N0488F320 DCT DEKMO DCT 80N165W DCT JUJXI DCT MARCC R338 NATES R220 NANAC Y810 AKRIT Y807 POLIX |
| Aircraft | B789/H-SDE1E2E3FGHIJ2J3J4J5M1RWXY/LB1D1 |
Departure
| Time | N/A |
|---|---|
| Airport | Helsinki Vantaa Airport (EFHK) |
Arrival
| Time | 2026-02-18 12:44 |
|---|---|
| Airport | Tokyo Haneda International Airport (RJTT) |
| Time | Latitude | Longitude | Altitude | Speed | Heading |
|---|---|---|---|---|---|
| 2026-02-18 09:58 | 48.26094 | 156.53188 | 32258 ft | 405 kts | 230° |
| 2026-02-18 09:59 | 48.24195 | 156.49689 | 32262 ft | 404 kts | 230° |
| 2026-02-18 09:59 | 48.20627 | 156.43128 | 32258 ft | 405 kts | 230° |
| 2026-02-18 10:00 | 48.17070 | 156.36600 | 32256 ft | 405 kts | 230° |
| 2026-02-18 10:00 | 48.13493 | 156.30056 | 32256 ft | 405 kts | 230° |
| 2026-02-18 10:01 | 48.09927 | 156.23545 | 32249 ft | 406 kts | 230° |
| 2026-02-18 10:01 | 48.06282 | 156.16906 | 32249 ft | 418 kts | 230° |
| 2026-02-18 10:01 | 48.04414 | 156.13509 | 32258 ft | 425 kts | 230° |
| 2026-02-18 10:02 | 48.01242 | 156.07752 | 32252 ft | 436 kts | 230° |
| 2026-02-18 10:02 | 47.97321 | 156.00654 | 32253 ft | 447 kts | 230° |
| 2026-02-18 10:03 | 47.93363 | 155.93505 | 32241 ft | 449 kts | 230° |
| 2026-02-18 10:03 | 47.89373 | 155.86320 | 32241 ft | 449 kts | 230° |
| 2026-02-18 10:04 | 47.85376 | 155.79141 | 32239 ft | 449 kts | 230° |
| 2026-02-18 10:04 | 47.81398 | 155.72015 | 32236 ft | 449 kts | 230° |
| 2026-02-18 10:05 | 47.75411 | 155.61323 | 32228 ft | 449 kts | 230° |
| 2026-02-18 10:06 | 47.71395 | 155.54178 | 32225 ft | 449 kts | 230° |
| 2026-02-18 10:06 | 47.67396 | 155.47080 | 32229 ft | 450 kts | 230° |
| 2026-02-18 10:07 | 47.63359 | 155.39932 | 32225 ft | 450 kts | 230° |
| 2026-02-18 10:07 | 47.59354 | 155.32862 | 32222 ft | 450 kts | 230° |
| 2026-02-18 10:08 | 47.55302 | 155.25726 | 32214 ft | 451 kts | 230° |
| 2026-02-18 10:08 | 47.51279 | 155.18659 | 32208 ft | 450 kts | 230° |
| 2026-02-18 10:09 | 47.47261 | 155.11621 | 32210 ft | 450 kts | 230° |
| 2026-02-18 10:09 | 47.41165 | 155.00977 | 32211 ft | 451 kts | 230° |
| 2026-02-18 10:10 | 47.37119 | 154.93936 | 32206 ft | 450 kts | 230° |
| 2026-02-18 10:10 | 47.33070 | 154.86907 | 32199 ft | 451 kts | 230° |
| 2026-02-18 10:11 | 47.29010 | 154.79878 | 32197 ft | 451 kts | 230° |
| 2026-02-18 10:11 | 47.24918 | 154.72811 | 32213 ft | 452 kts | 230° |
| 2026-02-18 10:12 | 47.20848 | 154.65801 | 32203 ft | 451 kts | 230° |
| 2026-02-18 10:12 | 47.16786 | 154.58824 | 32193 ft | 451 kts | 230° |
| 2026-02-18 10:13 | 47.10654 | 154.48323 | 32189 ft | 452 kts | 230° |
| 2026-02-18 10:14 | 47.06546 | 154.41310 | 32188 ft | 452 kts | 230° |
| 2026-02-18 10:14 | 47.02463 | 154.34360 | 32185 ft | 451 kts | 230° |
| 2026-02-18 10:15 | 46.98351 | 154.27378 | 32181 ft | 451 kts | 230° |
| 2026-02-18 10:15 | 46.94261 | 154.20450 | 32179 ft | 451 kts | 230° |
| 2026-02-18 10:16 | 46.90146 | 154.13497 | 32174 ft | 451 kts | 230° |
| 2026-02-18 10:16 | 46.86032 | 154.06563 | 32170 ft | 452 kts | 230° |
| 2026-02-18 10:17 | 46.81920 | 153.99652 | 32166 ft | 452 kts | 230° |
| 2026-02-18 10:17 | 46.75709 | 153.89245 | 32168 ft | 451 kts | 230° |
| 2026-02-18 10:18 | 46.71594 | 153.82372 | 32162 ft | 451 kts | 230° |
| 2026-02-18 10:18 | 46.67475 | 153.75511 | 32161 ft | 452 kts | 230° |
| 2026-02-18 10:19 | 46.63322 | 153.68609 | 32161 ft | 451 kts | 230° |
| 2026-02-18 10:19 | 46.59196 | 153.61770 | 32160 ft | 452 kts | 230° |
| 2026-02-18 10:20 | 46.55039 | 153.54895 | 32159 ft | 452 kts | 230° |
| 2026-02-18 10:20 | 46.50908 | 153.48082 | 32155 ft | 452 kts | 230° |
| 2026-02-18 10:21 | 46.44663 | 153.37815 | 32152 ft | 452 kts | 230° |
| 2026-02-18 10:22 | 46.40495 | 153.30983 | 32149 ft | 452 kts | 230° |
| 2026-02-18 10:22 | 46.36316 | 153.24152 | 32146 ft | 452 kts | 230° |
| 2026-02-18 10:23 | 46.32157 | 153.17368 | 32156 ft | 452 kts | 230° |
| 2026-02-18 10:23 | 46.27964 | 153.10549 | 32146 ft | 451 kts | 230° |
| 2026-02-18 10:24 | 46.23802 | 153.03793 | 32159 ft | 451 kts | 230° |
| 2026-02-18 10:24 | 46.19635 | 152.97065 | 32154 ft | 451 kts | 230° |
| 2026-02-18 10:25 | 46.15396 | 152.90328 | 32145 ft | 451 kts | 230° |
| 2026-02-18 10:25 | 46.09117 | 152.80320 | 32145 ft | 451 kts | 230° |
| 2026-02-18 10:26 | 46.04887 | 152.73613 | 32148 ft | 450 kts | 230° |
| 2026-02-18 10:26 | 46.00679 | 152.66950 | 32133 ft | 450 kts | 230° |
| 2026-02-18 10:27 | 45.96488 | 152.60332 | 32135 ft | 449 kts | 229° |
| 2026-02-18 10:27 | 45.92252 | 152.53660 | 32138 ft | 449 kts | 229° |
| 2026-02-18 10:28 | 45.88053 | 152.47061 | 32126 ft | 449 kts | 229° |
| 2026-02-18 10:28 | 45.83828 | 152.40438 | 32125 ft | 449 kts | 229° |
| 2026-02-18 10:29 | 45.77510 | 152.30563 | 32114 ft | 449 kts | 229° |
| 2026-02-18 10:30 | 45.73283 | 152.23976 | 32110 ft | 450 kts | 229° |
| 2026-02-18 10:30 | 45.69036 | 152.17376 | 32109 ft | 449 kts | 229° |
| 2026-02-18 10:31 | 45.64821 | 152.10838 | 32110 ft | 449 kts | 229° |
| 2026-02-18 10:31 | 45.60591 | 152.04296 | 32113 ft | 449 kts | 229° |
| 2026-02-18 10:32 | 45.56330 | 151.97719 | 32108 ft | 449 kts | 229° |
| 2026-02-18 10:32 | 45.52105 | 151.91214 | 32110 ft | 449 kts | 229° |
| 2026-02-18 10:33 | 45.47840 | 151.84663 | 32103 ft | 449 kts | 229° |
| 2026-02-18 10:33 | 45.41458 | 151.74890 | 32097 ft | 449 kts | 229° |
| 2026-02-18 10:34 | 45.37216 | 151.68414 | 32092 ft | 449 kts | 229° |
| 2026-02-18 10:34 | 45.32943 | 151.61904 | 32095 ft | 449 kts | 229° |
| 2026-02-18 10:35 | 45.28696 | 151.55450 | 32085 ft | 449 kts | 229° |
| 2026-02-18 10:35 | 45.24438 | 151.48996 | 32088 ft | 449 kts | 229° |
| 2026-02-18 10:36 | 45.20357 | 151.42822 | 32090 ft | 449 kts | 229° |
| 2026-02-18 10:36 | 45.19661 | 151.41772 | 32083 ft | 449 kts | 229° |
| 2026-02-18 10:37 | 45.09697 | 151.26764 | 32079 ft | 448 kts | 229° |
| 2026-02-18 10:38 | 45.05409 | 151.20330 | 32075 ft | 448 kts | 229° |
| 2026-02-18 10:38 | 45.01139 | 151.13939 | 32073 ft | 448 kts | 229° |
| 2026-02-18 10:39 | 44.96866 | 151.07559 | 32070 ft | 448 kts | 228° |
| 2026-02-18 10:39 | 44.92559 | 151.01141 | 32068 ft | 448 kts | 228° |
| 2026-02-18 10:40 | 44.88265 | 150.94759 | 32068 ft | 449 kts | 228° |
| 2026-02-18 10:40 | 44.83984 | 150.88410 | 32068 ft | 449 kts | 228° |
| 2026-02-18 10:41 | 44.79670 | 150.82029 | 32056 ft | 449 kts | 228° |
| 2026-02-18 10:41 | 44.73210 | 150.72498 | 32056 ft | 448 kts | 228° |
| 2026-02-18 10:42 | 44.68910 | 150.66173 | 32054 ft | 449 kts | 228° |
| 2026-02-18 10:42 | 44.64587 | 150.59829 | 32045 ft | 448 kts | 228° |
| 2026-02-18 10:43 | 44.60299 | 150.53550 | 32037 ft | 448 kts | 228° |
| 2026-02-18 10:43 | 44.55959 | 150.47209 | 32037 ft | 448 kts | 228° |
| 2026-02-18 10:44 | 44.51647 | 150.40924 | 32027 ft | 448 kts | 227° |
| 2026-02-18 10:44 | 44.47304 | 150.34608 | 32028 ft | 448 kts | 227° |
| 2026-02-18 10:45 | 44.40817 | 150.25201 | 32017 ft | 448 kts | 227° |
| 2026-02-18 10:46 | 44.36505 | 150.18966 | 32014 ft | 448 kts | 227° |
| 2026-02-18 10:46 | 44.32159 | 150.12696 | 32011 ft | 449 kts | 227° |
| 2026-02-18 10:47 | 44.27817 | 150.06446 | 32009 ft | 449 kts | 227° |
| 2026-02-18 10:47 | 44.23439 | 150.00159 | 32002 ft | 450 kts | 227° |
| 2026-02-18 10:48 | 44.19093 | 149.93931 | 32002 ft | 449 kts | 227° |
| 2026-02-18 10:48 | 44.14752 | 149.87724 | 32002 ft | 449 kts | 227° |
| 2026-02-18 10:49 | 44.10364 | 149.81465 | 31990 ft | 449 kts | 227° |
| 2026-02-18 10:49 | 44.03808 | 149.72139 | 31985 ft | 449 kts | 227° |
| 2026-02-18 10:50 | 44.00187 | 149.67002 | 31986 ft | 449 kts | 227° |
| 2026-02-18 10:50 | 43.95075 | 149.59765 | 31987 ft | 450 kts | 227° |
| 2026-02-18 10:51 | 43.90747 | 149.53655 | 31987 ft | 449 kts | 227° |
| 2026-02-18 10:51 | 43.87269 | 149.48751 | 31979 ft | 450 kts | 227° |
| 2026-02-18 10:52 | 43.82897 | 149.42603 | 31982 ft | 449 kts | 227° |
| 2026-02-18 10:52 | 43.78487 | 149.36414 | 31974 ft | 449 kts | 227° |
| 2026-02-18 10:53 | 43.71908 | 149.27206 | 31964 ft | 449 kts | 227° |
| 2026-02-18 10:54 | 43.67525 | 149.21088 | 31968 ft | 449 kts | 227° |
| 2026-02-18 10:54 | 43.63131 | 149.14969 | 31960 ft | 450 kts | 227° |
| 2026-02-18 10:55 | 43.58709 | 149.08823 | 31959 ft | 450 kts | 227° |
| 2026-02-18 10:55 | 43.54310 | 149.02725 | 31953 ft | 450 kts | 227° |
| 2026-02-18 10:56 | 43.49867 | 148.96579 | 31952 ft | 451 kts | 227° |
| 2026-02-18 10:56 | 43.45460 | 148.90495 | 31946 ft | 450 kts | 227° |
| 2026-02-18 10:57 | 43.41018 | 148.84377 | 31944 ft | 451 kts | 227° |
| 2026-02-18 10:57 | 43.34363 | 148.75236 | 31936 ft | 451 kts | 226° |
| 2026-02-18 10:58 | 43.29940 | 148.69177 | 31934 ft | 451 kts | 226° |
| 2026-02-18 10:58 | 43.25480 | 148.63081 | 31931 ft | 452 kts | 226° |
| 2026-02-18 10:59 | 43.21028 | 148.57009 | 31923 ft | 452 kts | 226° |
| 2026-02-18 10:59 | 43.16561 | 148.50931 | 31924 ft | 453 kts | 226° |
| 2026-02-18 11:00 | 43.12108 | 148.44883 | 31918 ft | 452 kts | 226° |
| 2026-02-18 11:00 | 43.07623 | 148.38806 | 31915 ft | 453 kts | 226° |
| 2026-02-18 11:01 | 43.00923 | 148.29753 | 31917 ft | 453 kts | 226° |
| 2026-02-18 11:02 | 42.96420 | 148.23685 | 31908 ft | 453 kts | 226° |
| 2026-02-18 11:02 | 42.91919 | 148.17632 | 31912 ft | 453 kts | 226° |
| 2026-02-18 11:03 | 42.87436 | 148.11616 | 31905 ft | 454 kts | 226° |
| 2026-02-18 11:03 | 42.82949 | 148.05609 | 31898 ft | 453 kts | 226° |
| 2026-02-18 11:04 | 42.78433 | 147.99577 | 31897 ft | 453 kts | 226° |
| 2026-02-18 11:04 | 42.73911 | 147.93547 | 31892 ft | 454 kts | 226° |
| 2026-02-18 11:05 | 42.69408 | 147.87557 | 31888 ft | 454 kts | 226° |
| 2026-02-18 11:05 | 42.62639 | 147.78577 | 31888 ft | 454 kts | 226° |
| 2026-02-18 11:06 | 42.58114 | 147.72590 | 31881 ft | 453 kts | 226° |
| 2026-02-18 11:06 | 42.53809 | 147.66905 | 31883 ft | 453 kts | 226° |
| 2026-02-18 11:07 | 42.49303 | 147.60968 | 31876 ft | 454 kts | 226° |
| 2026-02-18 11:07 | 42.44765 | 147.55001 | 31871 ft | 454 kts | 226° |
| 2026-02-18 11:08 | 42.40214 | 147.49029 | 31871 ft | 454 kts | 226° |
| 2026-02-18 11:08 | 42.35687 | 147.43096 | 31866 ft | 454 kts | 226° |
| 2026-02-18 11:09 | 42.28906 | 147.34223 | 31867 ft | 453 kts | 226° |
| 2026-02-18 11:10 | 42.24353 | 147.28281 | 31867 ft | 454 kts | 226° |
| 2026-02-18 11:10 | 42.19824 | 147.22384 | 31862 ft | 454 kts | 226° |
| 2026-02-18 11:11 | 42.15266 | 147.16460 | 31861 ft | 454 kts | 226° |
| 2026-02-18 11:11 | 42.10728 | 147.10576 | 31855 ft | 454 kts | 226° |
| 2026-02-18 11:12 | 42.06187 | 147.04700 | 31857 ft | 454 kts | 226° |
| 2026-02-18 11:12 | 42.01614 | 146.98795 | 31852 ft | 455 kts | 226° |
| 2026-02-18 11:13 | 41.97041 | 146.92902 | 31849 ft | 454 kts | 226° |
| 2026-02-18 11:13 | 41.90199 | 146.84109 | 31847 ft | 454 kts | 226° |
| 2026-02-18 11:14 | 41.85656 | 146.78268 | 31842 ft | 454 kts | 226° |
| 2026-02-18 11:14 | 41.81103 | 146.72433 | 31844 ft | 454 kts | 226° |
| 2026-02-18 11:15 | 41.76528 | 146.66579 | 31839 ft | 454 kts | 226° |
| 2026-02-18 11:15 | 41.71939 | 146.60720 | 31840 ft | 454 kts | 226° |
| 2026-02-18 11:16 | 41.67385 | 146.54918 | 31837 ft | 454 kts | 226° |
| 2026-02-18 11:16 | 41.62796 | 146.49083 | 31834 ft | 453 kts | 226° |
| 2026-02-18 11:17 | 41.55941 | 146.40389 | 31828 ft | 454 kts | 226° |
| 2026-02-18 11:18 | 41.51362 | 146.34598 | 31826 ft | 454 kts | 226° |
| 2026-02-18 11:18 | 41.46759 | 146.28787 | 31827 ft | 454 kts | 226° |
| 2026-02-18 11:19 | 41.42180 | 146.23019 | 31828 ft | 454 kts | 226° |
| 2026-02-18 11:19 | 41.37571 | 146.17225 | 31824 ft | 454 kts | 226° |
| 2026-02-18 11:20 | 41.32984 | 146.11469 | 31822 ft | 454 kts | 226° |
| 2026-02-18 11:20 | 41.28393 | 146.05720 | 31825 ft | 454 kts | 226° |
| 2026-02-18 11:21 | 41.23777 | 145.99954 | 31828 ft | 455 kts | 226° |
| 2026-02-18 11:21 | 41.16876 | 145.91352 | 31822 ft | 455 kts | 226° |
| 2026-02-18 11:22 | 41.12279 | 145.85637 | 31818 ft | 453 kts | 226° |
| 2026-02-18 11:22 | 41.07667 | 145.79915 | 31815 ft | 451 kts | 226° |
| 2026-02-18 11:23 | 41.03079 | 145.74234 | 31818 ft | 453 kts | 226° |
| 2026-02-18 11:23 | 40.98479 | 145.68550 | 31813 ft | 453 kts | 226° |
| 2026-02-18 11:24 | 40.93880 | 145.62877 | 31810 ft | 453 kts | 226° |
| 2026-02-18 11:24 | 40.89261 | 145.57194 | 31808 ft | 452 kts | 226° |
| 2026-02-18 11:25 | 40.82383 | 145.48748 | 31806 ft | 451 kts | 226° |
| 2026-02-18 11:26 | 40.77774 | 145.43103 | 31807 ft | 451 kts | 226° |
| 2026-02-18 11:26 | 40.73186 | 145.37497 | 31810 ft | 451 kts | 226° |
| 2026-02-18 11:27 | 40.68574 | 145.31869 | 31807 ft | 452 kts | 226° |
| 2026-02-18 11:27 | 40.63952 | 145.26244 | 31805 ft | 451 kts | 226° |
| 2026-02-18 11:28 | 40.59361 | 145.20665 | 31803 ft | 451 kts | 226° |
| 2026-02-18 11:28 | 40.54744 | 145.15066 | 31798 ft | 451 kts | 226° |
| 2026-02-18 11:29 | 40.50135 | 145.09487 | 31799 ft | 451 kts | 226° |
| 2026-02-18 11:29 | 40.43229 | 145.01149 | 31799 ft | 450 kts | 226° |
| 2026-02-18 11:30 | 40.38602 | 144.95574 | 31795 ft | 450 kts | 226° |
| 2026-02-18 11:30 | 40.34009 | 144.90052 | 31798 ft | 449 kts | 226° |
| 2026-02-18 11:31 | 40.29412 | 144.84536 | 31798 ft | 449 kts | 226° |
| 2026-02-18 11:31 | 40.24788 | 144.78998 | 31793 ft | 450 kts | 226° |
| 2026-02-18 11:32 | 40.20181 | 144.73491 | 31790 ft | 448 kts | 226° |
| 2026-02-18 11:32 | 40.15562 | 144.67980 | 31789 ft | 447 kts | 226° |
| 2026-02-18 11:33 | 40.08680 | 144.59788 | 31790 ft | 446 kts | 226° |
| 2026-02-18 11:34 | 40.04107 | 144.54359 | 31787 ft | 446 kts | 226° |
| 2026-02-18 11:34 | 39.99491 | 144.48887 | 31787 ft | 446 kts | 226° |
| 2026-02-18 11:35 | 39.94905 | 144.43463 | 31785 ft | 446 kts | 226° |
| 2026-02-18 11:35 | 39.90318 | 144.38047 | 31785 ft | 446 kts | 226° |
| 2026-02-18 11:36 | 39.85736 | 144.32647 | 31787 ft | 446 kts | 226° |
| 2026-02-18 11:36 | 39.81119 | 144.27217 | 31795 ft | 445 kts | 226° |
| 2026-02-18 11:37 | 39.76531 | 144.21831 | 31786 ft | 445 kts | 226° |
| 2026-02-18 11:37 | 39.69640 | 144.13759 | 31778 ft | 444 kts | 226° |
| 2026-02-18 11:38 | 39.65068 | 144.08417 | 31783 ft | 444 kts | 226° |
| 2026-02-18 11:38 | 39.61234 | 144.03944 | 31783 ft | 443 kts | 226° |
| 2026-02-18 11:39 | 39.56646 | 143.98602 | 31782 ft | 442 kts | 226° |
| 2026-02-18 11:39 | 39.51336 | 143.92430 | 31783 ft | 441 kts | 226° |
| 2026-02-18 11:40 | 39.47524 | 143.88008 | 31785 ft | 441 kts | 226° |
| 2026-02-18 11:40 | 39.42946 | 143.82706 | 31785 ft | 441 kts | 226° |
| 2026-02-18 11:41 | 39.36089 | 143.74783 | 31786 ft | 441 kts | 226° |
| 2026-02-18 11:42 | 39.31516 | 143.69511 | 31785 ft | 440 kts | 226° |
| 2026-02-18 11:42 | 39.26965 | 143.64273 | 31786 ft | 441 kts | 226° |
| 2026-02-18 11:43 | 39.22375 | 143.59003 | 31785 ft | 440 kts | 226° |
| 2026-02-18 11:43 | 39.17813 | 143.53772 | 31792 ft | 439 kts | 226° |
| 2026-02-18 11:44 | 39.13245 | 143.48543 | 31794 ft | 439 kts | 226° |
| 2026-02-18 11:44 | 39.08683 | 143.43332 | 31792 ft | 439 kts | 226° |
| 2026-02-18 11:45 | 39.04096 | 143.38101 | 31792 ft | 439 kts | 226° |
| 2026-02-18 11:45 | 38.97227 | 143.30287 | 31790 ft | 438 kts | 226° |
| 2026-02-18 11:46 | 38.92482 | 143.25397 | 31815 ft | 444 kts | 217° |
| 2026-02-18 11:46 | 38.86746 | 143.22105 | 31819 ft | 459 kts | 202° |
| 2026-02-18 11:47 | 38.80443 | 143.20522 | 31805 ft | 464 kts | 197° |
| 2026-02-18 11:47 | 38.74056 | 143.19101 | 31801 ft | 464 kts | 197° |
| 2026-02-18 11:48 | 38.67726 | 143.17694 | 31793 ft | 463 kts | 198° |
| 2026-02-18 11:48 | 38.61355 | 143.16277 | 31796 ft | 463 kts | 198° |
| 2026-02-18 11:49 | 38.51857 | 143.14174 | 31794 ft | 463 kts | 198° |
| 2026-02-18 11:50 | 38.45530 | 143.12776 | 31797 ft | 463 kts | 198° |
| 2026-02-18 11:50 | 38.39170 | 143.11372 | 31796 ft | 462 kts | 198° |
| 2026-02-18 11:51 | 38.32850 | 143.09980 | 31790 ft | 462 kts | 198° |
| 2026-02-18 11:51 | 38.26517 | 143.08588 | 31797 ft | 462 kts | 198° |
| 2026-02-18 11:52 | 38.20150 | 143.07191 | 31794 ft | 462 kts | 198° |
| 2026-02-18 11:52 | 38.13834 | 143.05807 | 31798 ft | 462 kts | 199° |
| 2026-02-18 11:53 | 38.07522 | 143.04427 | 31799 ft | 461 kts | 199° |
| 2026-02-18 11:53 | 37.98006 | 143.02350 | 31797 ft | 461 kts | 199° |
| 2026-02-18 11:54 | 37.91697 | 143.00976 | 31796 ft | 461 kts | 199° |
| 2026-02-18 11:54 | 37.85426 | 142.99613 | 31797 ft | 461 kts | 199° |
| 2026-02-18 11:55 | 37.79098 | 142.98240 | 31793 ft | 461 kts | 199° |
| 2026-02-18 11:55 | 37.72774 | 142.96871 | 31799 ft | 460 kts | 199° |
| 2026-02-18 11:56 | 37.66484 | 142.95509 | 31793 ft | 460 kts | 199° |
| 2026-02-18 11:56 | 37.60161 | 142.94146 | 31802 ft | 459 kts | 200° |
| 2026-02-18 11:57 | 37.50713 | 142.92111 | 31801 ft | 459 kts | 200° |
| 2026-02-18 11:58 | 37.44432 | 142.90760 | 31797 ft | 459 kts | 200° |
| 2026-02-18 11:58 | 37.38138 | 142.89409 | 31794 ft | 459 kts | 200° |
| 2026-02-18 11:59 | 37.31857 | 142.88064 | 31792 ft | 459 kts | 200° |
| 2026-02-18 11:59 | 37.25550 | 142.86717 | 31792 ft | 459 kts | 200° |
| 2026-02-18 12:00 | 37.19273 | 142.85380 | 31795 ft | 458 kts | 200° |
| 2026-02-18 12:00 | 37.13033 | 142.83851 | 31805 ft | 448 kts | 207° |
| 2026-02-18 12:01 | 37.07453 | 142.80873 | 31812 ft | 431 kts | 219° |
| 2026-02-18 12:01 | 36.99622 | 142.75356 | 31797 ft | 430 kts | 219° |
| 2026-02-18 12:02 | 36.94413 | 142.71677 | 31794 ft | 430 kts | 219° |
| 2026-02-18 12:02 | 36.89181 | 142.68000 | 31798 ft | 431 kts | 219° |
| 2026-02-18 12:03 | 36.83955 | 142.64329 | 31800 ft | 429 kts | 219° |
| 2026-02-18 12:03 | 36.78771 | 142.60693 | 31800 ft | 429 kts | 219° |
| 2026-02-18 12:04 | 36.73581 | 142.57058 | 31801 ft | 429 kts | 219° |
| 2026-02-18 12:04 | 36.68352 | 142.53403 | 31804 ft | 428 kts | 219° |
| 2026-02-18 12:05 | 36.60581 | 142.47979 | 31811 ft | 428 kts | 219° |
| 2026-02-18 12:06 | 36.55398 | 142.44371 | 31820 ft | 428 kts | 219° |
| 2026-02-18 12:06 | 36.50200 | 142.40756 | 31814 ft | 428 kts | 219° |
| 2026-02-18 12:07 | 36.45024 | 142.37163 | 31812 ft | 427 kts | 219° |
| 2026-02-18 12:07 | 36.39811 | 142.33549 | 31816 ft | 427 kts | 219° |
| 2026-02-18 12:08 | 36.32028 | 142.28164 | 31811 ft | 428 kts | 219° |
| 2026-02-18 12:08 | 36.26820 | 142.24569 | 31820 ft | 427 kts | 219° |
| 2026-02-18 12:09 | 36.19041 | 142.19211 | 31814 ft | 428 kts | 219° |
| 2026-02-18 12:10 | 36.13828 | 142.15615 | 31816 ft | 426 kts | 221° |
| 2026-02-18 12:10 | 36.09229 | 142.11311 | 31836 ft | 410 kts | 232° |
| 2026-02-18 12:11 | 36.05565 | 142.06007 | 31832 ft | 400 kts | 242° |
| 2026-02-18 12:11 | 36.02954 | 142.00058 | 31840 ft | 393 kts | 250° |
| 2026-02-18 12:12 | 36.00706 | 141.93869 | 31834 ft | 394 kts | 250° |
| 2026-02-18 12:12 | 35.98486 | 141.87701 | 31828 ft | 394 kts | 250° |
| 2026-02-18 12:13 | 35.96268 | 141.81501 | 31838 ft | 392 kts | 252° |
| 2026-02-18 12:13 | 35.94865 | 141.75308 | 31824 ft | 356 kts | 261° |
| 2026-02-18 12:13 | 35.94552 | 141.72349 | 31820 ft | 339 kts | 265° |
| 2026-02-18 12:14 | 35.94477 | 141.66594 | 31826 ft | 341 kts | 269° |
| 2026-02-18 12:14 | 35.94496 | 141.60702 | 31820 ft | 343 kts | 269° |
| 2026-02-18 12:15 | 35.94529 | 141.54820 | 31836 ft | 343 kts | 269° |
| 2026-02-18 12:15 | 35.94553 | 141.48962 | 31836 ft | 343 kts | 269° |
| 2026-02-18 12:16 | 35.94576 | 141.43042 | 31840 ft | 344 kts | 269° |
| 2026-02-18 12:16 | 35.94595 | 141.37159 | 31834 ft | 345 kts | 269° |
| 2026-02-18 12:17 | 35.94620 | 141.28279 | 31844 ft | 345 kts | 269° |
| 2026-02-18 12:18 | 35.94632 | 141.22360 | 31849 ft | 345 kts | 269° |
| 2026-02-18 12:18 | 35.94643 | 141.16560 | 31355 ft | 332 kts | 269° |
| 2026-02-18 12:18 | 35.94646 | 141.13723 | 30785 ft | 329 kts | 269° |
| 2026-02-18 12:19 | 35.94648 | 141.10915 | 30339 ft | 322 kts | 269° |
| 2026-02-18 12:19 | 35.94651 | 141.08165 | 29905 ft | 318 kts | 269° |
| 2026-02-18 12:19 | 35.94653 | 141.05465 | 29429 ft | 317 kts | 269° |
| 2026-02-18 12:19 | 35.94653 | 141.02720 | 28977 ft | 323 kts | 269° |
| 2026-02-18 12:20 | 35.94784 | 140.99905 | 28511 ft | 331 kts | 275° |
| 2026-02-18 12:20 | 35.95191 | 140.97118 | 28025 ft | 335 kts | 280° |
| 2026-02-18 12:20 | 35.95886 | 140.94336 | 27510 ft | 341 kts | 285° |
| 2026-02-18 12:20 | 35.96871 | 140.91638 | 26977 ft | 348 kts | 291° |
| 2026-02-18 12:21 | 35.98136 | 140.89042 | 26420 ft | 354 kts | 295° |
| 2026-02-18 12:21 | 36.00769 | 140.83864 | 25238 ft | 360 kts | 295° |
| 2026-02-18 12:21 | 36.02114 | 140.81231 | 24618 ft | 363 kts | 295° |
| 2026-02-18 12:22 | 36.03472 | 140.78574 | 23974 ft | 366 kts | 295° |
| 2026-02-18 12:22 | 36.04822 | 140.75927 | 23277 ft | 370 kts | 296° |
| 2026-02-18 12:22 | 36.06202 | 140.73214 | 22566 ft | 371 kts | 296° |
| 2026-02-18 12:22 | 36.07586 | 140.70495 | 21859 ft | 372 kts | 296° |
| 2026-02-18 12:23 | 36.08945 | 140.67829 | 21152 ft | 365 kts | 296° |
| 2026-02-18 12:23 | 36.10291 | 140.65181 | 20470 ft | 363 kts | 296° |
| 2026-02-18 12:23 | 36.11638 | 140.62518 | 19777 ft | 365 kts | 296° |
| 2026-02-18 12:23 | 36.12990 | 140.59849 | 19081 ft | 366 kts | 296° |
| 2026-02-18 12:24 | 36.14334 | 140.57206 | 18399 ft | 359 kts | 296° |
| 2026-02-18 12:24 | 36.15440 | 140.54549 | 17144 ft | 343 kts | 283° |
| 2026-02-18 12:24 | 36.15890 | 140.51666 | 15824 ft | 343 kts | 275° |
| 2026-02-18 12:24 | 36.16004 | 140.48720 | 14553 ft | 342 kts | 267° |
| 2026-02-18 12:25 | 36.15781 | 140.45833 | 13323 ft | 337 kts | 260° |
| 2026-02-18 12:25 | 36.14348 | 140.40380 | 11676 ft | 337 kts | 244° |
| 2026-02-18 12:25 | 36.13168 | 140.37910 | 11074 ft | 328 kts | 236° |
| 2026-02-18 12:26 | 36.11766 | 140.35769 | 10781 ft | 312 kts | 229° |
| 2026-02-18 12:26 | 36.10253 | 140.34014 | 10672 ft | 292 kts | 221° |
| 2026-02-18 12:26 | 36.08649 | 140.32589 | 10554 ft | 275 kts | 215° |
| 2026-02-18 12:26 | 36.07027 | 140.31465 | 10439 ft | 259 kts | 212° |
| 2026-02-18 12:27 | 36.06000 | 140.30768 | 10351 ft | 248 kts | 213° |
| 2026-02-18 12:27 | 36.04493 | 140.29737 | 10262 ft | 249 kts | 213° |
| 2026-02-18 12:27 | 36.02953 | 140.28690 | 10074 ft | 252 kts | 212° |
| 2026-02-18 12:27 | 36.01447 | 140.27677 | 9824 ft | 247 kts | 212° |
| 2026-02-18 12:28 | 36.00220 | 140.26372 | 9782 ft | 223 kts | 242° |
| 2026-02-18 12:28 | 35.99646 | 140.24635 | 9767 ft | 221 kts | 250° |
| 2026-02-18 12:28 | 35.99123 | 140.22822 | 9763 ft | 224 kts | 249° |
| 2026-02-18 12:28 | 35.98545 | 140.21059 | 9758 ft | 225 kts | 247° |
| 2026-02-18 12:29 | 35.97929 | 140.19290 | 9723 ft | 217 kts | 246° |
| 2026-02-18 12:29 | 35.96728 | 140.15790 | 9614 ft | 221 kts | 247° |
| 2026-02-18 12:29 | 35.96141 | 140.14067 | 9405 ft | 221 kts | 247° |
| 2026-02-18 12:30 | 35.95540 | 140.12309 | 9194 ft | 223 kts | 247° |
| 2026-02-18 12:30 | 35.94943 | 140.10565 | 8946 ft | 217 kts | 247° |
| 2026-02-18 12:30 | 35.94352 | 140.08837 | 8731 ft | 220 kts | 247° |
| 2026-02-18 12:30 | 35.93758 | 140.07101 | 8577 ft | 219 kts | 246° |
| 2026-02-18 12:31 | 35.93166 | 140.05376 | 8407 ft | 219 kts | 246° |
| 2026-02-18 12:31 | 35.92787 | 140.04269 | 8266 ft | 215 kts | 246° |
| 2026-02-18 12:31 | 35.92233 | 140.02653 | 8074 ft | 218 kts | 246° |
| 2026-02-18 12:31 | 35.91640 | 140.00925 | 7834 ft | 218 kts | 246° |
| 2026-02-18 12:32 | 35.91047 | 139.99198 | 7585 ft | 216 kts | 246° |
| 2026-02-18 12:32 | 35.90474 | 139.97529 | 7383 ft | 215 kts | 246° |
| 2026-02-18 12:32 | 35.89886 | 139.95819 | 7158 ft | 216 kts | 246° |
| 2026-02-18 12:32 | 35.89296 | 139.94103 | 6929 ft | 216 kts | 246° |
| 2026-02-18 12:33 | 35.88721 | 139.92433 | 6696 ft | 211 kts | 246° |
| 2026-02-18 12:33 | 35.87561 | 139.89064 | 6245 ft | 214 kts | 246° |
| 2026-02-18 12:33 | 35.86976 | 139.87367 | 5999 ft | 215 kts | 245° |
| 2026-02-18 12:34 | 35.86385 | 139.85655 | 5766 ft | 217 kts | 246° |
| 2026-02-18 12:34 | 35.85799 | 139.83955 | 5547 ft | 219 kts | 245° |
| 2026-02-18 12:34 | 35.85199 | 139.82220 | 5306 ft | 220 kts | 245° |
| 2026-02-18 12:34 | 35.84596 | 139.80473 | 5036 ft | 222 kts | 245° |
| 2026-02-18 12:35 | 35.83988 | 139.78713 | 4792 ft | 223 kts | 245° |
| 2026-02-18 12:35 | 35.83379 | 139.76955 | 4547 ft | 224 kts | 245° |
| 2026-02-18 12:35 | 35.82779 | 139.75218 | 4319 ft | 224 kts | 245° |
| 2026-02-18 12:35 | 35.82207 | 139.73416 | 4101 ft | 226 kts | 253° |
| 2026-02-18 12:36 | 35.82186 | 139.71488 | 4040 ft | 226 kts | 270° |
| 2026-02-18 12:36 | 35.82172 | 139.69550 | 4039 ft | 219 kts | 266° |
| 2026-02-18 12:36 | 35.82141 | 139.67714 | 4056 ft | 212 kts | 267° |
| 2026-02-18 12:36 | 35.82078 | 139.65912 | 4035 ft | 207 kts | 258° |
| 2026-02-18 12:37 | 35.81410 | 139.64412 | 4032 ft | 203 kts | 225° |
| 2026-02-18 12:37 | 35.78804 | 139.63545 | 4036 ft | 201 kts | 172° |
| 2026-02-18 12:37 | 35.77475 | 139.63960 | 4042 ft | 193 kts | 162° |
| 2026-02-18 12:38 | 35.76304 | 139.64677 | 4020 ft | 185 kts | 153° |
| 2026-02-18 12:38 | 35.75182 | 139.65447 | 4010 ft | 182 kts | 152° |
| 2026-02-18 12:38 | 35.74079 | 139.66227 | 3940 ft | 185 kts | 151° |
| 2026-02-18 12:38 | 35.72987 | 139.67003 | 3715 ft | 182 kts | 151° |
| 2026-02-18 12:39 | 35.71887 | 139.67781 | 3453 ft | 180 kts | 150° |
| 2026-02-18 12:39 | 35.70802 | 139.68550 | 3201 ft | 179 kts | 150° |
| 2026-02-18 12:39 | 35.69739 | 139.69311 | 2949 ft | 178 kts | 149° |
| 2026-02-18 12:39 | 35.68667 | 139.70073 | 2704 ft | 178 kts | 149° |
| 2026-02-18 12:40 | 35.67592 | 139.70835 | 2449 ft | 176 kts | 149° |
| 2026-02-18 12:40 | 35.66559 | 139.71575 | 2212 ft | 164 kts | 148° |
| 2026-02-18 12:40 | 35.65637 | 139.72229 | 1981 ft | 147 kts | 148° |
| 2026-02-18 12:40 | 35.64770 | 139.72842 | 1814 ft | 140 kts | 147° |
| 2026-02-18 12:41 | 35.63924 | 139.73451 | 1614 ft | 140 kts | 147° |
| 2026-02-18 12:41 | 35.62221 | 139.74661 | 1226 ft | 142 kts | 147° |
| 2026-02-18 12:41 | 35.61360 | 139.75272 | 1019 ft | 143 kts | 147° |
| 2026-02-18 12:42 | 35.60514 | 139.75871 | 840 ft | 143 kts | 147° |
| 2026-02-18 12:42 | 35.59623 | 139.76507 | 709 ft | 152 kts | 149° |
| 2026-02-18 12:42 | 35.58698 | 139.77182 | 573 ft | 156 kts | 148° |
| 2026-02-18 12:42 | 35.57727 | 139.77850 | 384 ft | 161 kts | 151° |
| 2026-02-18 12:43 | 35.56759 | 139.78536 | 144 ft | 159 kts | 148° |
| 2026-02-18 12:43 | 35.55880 | 139.79161 | 70 ft | 125 kts | 149° |
| 2026-02-18 12:43 | 35.55277 | 139.79582 | 68 ft | 78 kts | 150° |
| 2026-02-18 12:43 | 35.54905 | 139.79842 | 66 ft | 52 kts | 153° |
| 2026-02-18 12:44 | 35.54668 | 139.79926 | 61 ft | 22 kts | 178° |
| 2026-02-18 12:44 | 35.54571 | 139.79850 | 68 ft | 10 kts | 238° |
| 2026-02-18 12:44 | 35.54548 | 139.79778 | 65 ft | 10 kts | 266° |
| 2026-02-18 12:44 | 35.54576 | 139.79709 | 68 ft | 9 kts | 314° |
| 2026-02-18 12:45 | 35.54630 | 139.79660 | 64 ft | 10 kts | 329° |
| 2026-02-18 12:45 | 35.54756 | 139.79578 | 66 ft | 8 kts | 319° |
| 2026-02-18 12:45 | 35.54763 | 139.79552 | 63 ft | 2 kts | 272° |
| 2026-02-18 12:46 | 35.54754 | 139.79518 | 65 ft | 7 kts | 238° |
| 2026-02-18 12:46 | 35.54720 | 139.79454 | 65 ft | 10 kts | 241° |
| 2026-02-18 12:46 | 35.54682 | 139.79373 | 65 ft | 12 kts | 240° |
| 2026-02-18 12:46 | 35.54636 | 139.79274 | 63 ft | 15 kts | 240° |
| 2026-02-18 12:47 | 35.54580 | 139.79161 | 63 ft | 16 kts | 239° |
| 2026-02-18 12:47 | 35.54523 | 139.79040 | 67 ft | 17 kts | 240° |
| 2026-02-18 12:47 | 35.54462 | 139.78906 | 64 ft | 19 kts | 240° |
| 2026-02-18 12:47 | 35.54390 | 139.78756 | 66 ft | 21 kts | 240° |
| 2026-02-18 12:48 | 35.54312 | 139.78594 | 66 ft | 23 kts | 239° |
| 2026-02-18 12:48 | 35.54229 | 139.78418 | 63 ft | 24 kts | 240° |
| 2026-02-18 12:48 | 35.54189 | 139.78334 | 63 ft | 1 kts | 240° |
| 2026-02-18 12:48 | 35.54189 | 139.78333 | 63 ft | 0 kts | 240° |
| 2026-02-18 12:49 | 35.54179 | 139.78312 | 70 ft | 8 kts | 240° |
| 2026-02-18 12:50 | 35.54139 | 139.78228 | 67 ft | 15 kts | 240° |
| 2026-02-18 12:50 | 35.54081 | 139.78106 | 72 ft | 18 kts | 239° |
| 2026-02-18 12:50 | 35.54027 | 139.77969 | 64 ft | 17 kts | 268° |
| 2026-02-18 12:50 | 35.54092 | 139.77878 | 63 ft | 14 kts | 329° |
| 2026-02-18 12:51 | 35.54178 | 139.77815 | 67 ft | 15 kts | 329° |
| 2026-02-18 12:51 | 35.54274 | 139.77747 | 64 ft | 18 kts | 330° |
| 2026-02-18 12:51 | 35.54389 | 139.77666 | 63 ft | 20 kts | 330° |
| 2026-02-18 12:51 | 35.54514 | 139.77577 | 68 ft | 21 kts | 329° |
| 2026-02-18 12:52 | 35.54636 | 139.77489 | 65 ft | 20 kts | 329° |
| 2026-02-18 12:52 | 35.54742 | 139.77415 | 63 ft | 15 kts | 330° |
| 2026-02-18 12:52 | 35.54818 | 139.77338 | 63 ft | 13 kts | 294° |
| 2026-02-18 12:52 | 35.54801 | 139.77243 | 66 ft | 12 kts | 243° |
| 2026-02-18 12:53 | 35.54764 | 139.77162 | 63 ft | 5 kts | 240° |
| 2026-02-18 12:53 | 35.54744 | 139.77109 | 64 ft | 9 kts | 252° |
| 2026-02-18 12:53 | 35.54739 | 139.77020 | 73 ft | 11 kts | 264° |
| 2026-02-18 12:54 | 35.54726 | 139.76975 | 63 ft | 2 kts | 243° |
| 2026-02-18 12:54 | 35.54708 | 139.76935 | 64 ft | 5 kts | 240° |
| 2026-02-18 12:54 | 35.54705 | 139.76929 | 64 ft | 0 kts | 240° |